Friday, January 19, 2018, 10:37 AM EST
Back to Local

KCDW, Caldwell Essex County Airport

Location: Fairfield, NJ, United States Lat: 40.883
Local Time: 10:37 AM EST (15:37 GMT) Lon: -74.283
Time Zone: US/Eastern Elev: 173 ft

Show me the last for .
Show Decoded

2018-01-19 09:53 METAR KCDW 191453Z VRB03KT 10SM CLR M03/M09 A3008 RMK AO2 SLP195 T10331094 53006
                 =
2018-01-19 08:53 METAR KCDW 191353Z 00000KT 10SM CLR M05/M09 A3008 RMK AO2 SLP193 T10501089 =
2018-01-19 07:53 METAR KCDW 191253Z 00000KT 9SM CLR M08/M11 A3007 RMK AO2 SLP190 T10831106 =
2018-01-19 06:53 METAR KCDW 191153Z 00000KT 9SM CLR M09/M11 A3007 RMK AO2 SLP190 T10941106 11089
                 21100 53001 =
2018-01-19 05:53 METAR KCDW 191053Z 00000KT 8SM CLR M10/M11 A3006 RMK AO2 SLP189 T11001111 =
2018-01-19 04:53 METAR KCDW 190953Z 24003KT 10SM CLR M09/M11 A3006 RMK AO2 SLP189 T10891111 =
2018-01-19 03:53 METAR KCDW 190853Z 21004KT 9SM CLR M09/M11 A3007 RMK AO2 SLP189 T10941106 53005
                 =
2018-01-19 02:53 METAR KCDW 190753Z 00000KT 9SM CLR M09/M11 A3005 RMK AO2 SLP184 T10941111 =
2018-01-19 01:53 METAR KCDW 190653Z 00000KT 9SM CLR M09/M11 A3005 RMK AO2 SLP184 T10941111 =
2018-01-19 00:53 METAR KCDW 190553Z 00000KT 9SM CLR M09/M11 A3005 RMK AO2 SLP184 T10941111 11028
                 21094 58014 =
2018-01-18 23:53 METAR KCDW 190453Z 19003KT 10SM CLR M08/M11 A3008 RMK AO2 SLP193 T10831111
                 410061117 =
2018-01-18 22:53 METAR KCDW 190353Z 00000KT 10SM CLR M07/M11 A3008 RMK AO2 SLP195 T10721111 =
2018-01-18 21:53 METAR KCDW 190253Z 00000KT 10SM CLR M07/M11 A3009 RMK AO2 SLP198 T10671111 53018
                 =
2018-01-18 20:53 METAR KCDW 190153Z VRB03KT 10SM CLR M05/M11 A3007 RMK AO2 SLP190 T10501111 =
2018-01-18 19:53 METAR KCDW 190053Z 32003KT 10SM CLR M04/M12 A3005 RMK AO2 SLP183 T10441117 =
2018-01-18 18:53 METAR KCDW 182353Z 32004KT 10SM CLR M03/M12 A3004 RMK AO2 SLP180 T10281117 11006
                 21033 53028 =
2018-01-18 17:53 METAR KCDW 182253Z 00000KT 10SM CLR M03/M12 A3001 RMK AO2 SLP169 T10281117 =
2018-01-18 16:53 METAR KCDW 182153Z 30007KT 10SM CLR M02/M12 A2997 RMK AO2 SLP156 T10221117 =
2018-01-18 15:53 METAR KCDW 182053Z 32009KT 10SM CLR M01/M12 A2995 RMK AO2 SLP151 T10061117 55006
                 =
2018-01-18 14:53 METAR KCDW 181953Z 32010KT 10SM CLR M01/M12 A2994 RMK AO2 SLP147 T10061122 =
2018-01-18 13:53 METAR KCDW 181853Z 33010KT 10SM CLR M01/M13 A2995 RMK AO2 SLP149 T10111133 =
2018-01-18 12:53 METAR KCDW 181753Z 30011KT 10SM CLR M02/M13 A2997 RMK AO2 SLP157 T10171133 11017
                 21100 58036 =
2018-01-18 11:53 METAR KCDW 181653Z 32007KT 10SM CLR M03/M14 A3002 RMK AO2 SLP172 T10281139 =
2018-01-18 10:53 METAR KCDW 181553Z 31008KT 10SM CLR M03/M14 A3006 RMK AO2 SLP189 T10331144 =

Support USWX by starting your Amazon purchase here.